Weather History for Rice Lake, WI

Change the Weather History Date:

Thursday, March 29, 2012

  Actual Average Record
Temperature  
Mean Temperature 40 °F -  
Max Temperature 51 °F 43 °F 66 °F (2005)
Min Temperature 30 °F 26 °F 6 °F (2011)
Degree Days  
Heating Degree Days 24    
Moisture  
Dew Point 30 °F    
Average Humidity 68    
Maximum Humidity 100    
Minimum Humidity 41    
Precipitation  
Precipitation 0.00 in - - ()
Sea Level Pressure  
Sea Level Pressure 30.06 in    
Wind  
Wind Speed 5 mph (ESE)    
Max Wind Speed 17 mph    
Max Gust Speed 21 mph    
Visibility 10 miles    
Events      
Averages and records for this station are not official NWS values.
T = Trace of Precipitation, MM = Missing Value Source: NWS Daily Summary

Daily Weather History Graph

Daily Weather History Graph

Search for Another Location

Airport:

Trip Planner

Search our weather history database for the weather conditions in past years. The results will help you decide how hot, cold, wet, or windy it might be!

Date:

Astronomy

Mar. 29, 2012 Rise Set
Actual Time 6:52 AM CDT 7:32 PM CDT
Civil Twilight 6:22 AM CDT 8:01 PM CDT
Nautical Twilight 5:47 AM CDT 8:37 PM CDT
Astronomical Twilight 5:10 AM CDT 9:14 PM CDT
Moon 10:46 AM CDT (3/29) 1:38 AM CDT (3/29)
Length of Visible Light 13h 39m
Length of Day
12h 39m
Waxing Crescent, 39% of the Moon is Illuminated
Mar 29
Waxing Crescent
Mar 30
First Quarter
Apr 6
Full
Apr 13
Last Quarter
Apr 21
New

Hourly Weather History & Observations

Time (CDT) Temp. Windchill Dew Point Humidity Pressure Visibility Wind Dir Wind Speed Gust Speed Precip Events Conditions
12:15 AM 35.6 °F - 32.0 °F 87% 30.10 in 10.0 mi Calm Calm - N/A   Clear
12:35 AM 33.8 °F - 32.0 °F 93% 30.11 in 10.0 mi Calm Calm - N/A   Clear
12:55 AM 33.8 °F - 32.0 °F 93% 30.10 in 10.0 mi Calm Calm - N/A   Clear
1:15 AM 33.8 °F - 30.2 °F 87% 30.11 in 10.0 mi Calm Calm - N/A   Clear
1:35 AM 32.0 °F - 30.2 °F 93% 30.12 in 10.0 mi Calm Calm - N/A   Clear
1:55 AM 32.0 °F - 32.0 °F 100% 30.12 in 10.0 mi Calm Calm - N/A   Clear
2:15 AM 32.0 °F - 30.2 °F 93% 30.12 in 10.0 mi Calm Calm - N/A   Clear
2:35 AM 32.0 °F - 32.0 °F 100% 30.12 in 10.0 mi Calm Calm - N/A   Clear
2:55 AM 30.2 °F 26.7 °F 30.2 °F 100% 30.11 in 10.0 mi NE 3.5 mph - N/A   Clear
3:15 AM 32.0 °F - 30.2 °F 93% 30.11 in 10.0 mi Calm Calm - N/A   Clear
3:35 AM 30.2 °F 26.7 °F 28.4 °F 93% 30.11 in 10.0 mi NE 3.5 mph - N/A   Clear
3:55 AM 30.2 °F 25.4 °F 28.4 °F 93% 30.12 in 10.0 mi North 4.6 mph - N/A   Clear
4:15 AM 30.2 °F - 28.4 °F 93% 30.11 in 10.0 mi Calm Calm - N/A   Clear
4:35 AM 30.2 °F - 30.2 °F 100% 30.11 in 10.0 mi Calm Calm - N/A   Clear
4:55 AM 30.2 °F - 28.4 °F 93% 30.12 in 10.0 mi Calm Calm - N/A   Clear
5:15 AM 30.2 °F - 28.4 °F 93% 30.12 in 10.0 mi Calm Calm - N/A   Clear
5:35 AM 30.2 °F - 28.4 °F 93% 30.13 in 10.0 mi Calm Calm - N/A   Clear
5:55 AM 30.2 °F 26.7 °F 28.4 °F 93% 30.13 in 10.0 mi East 3.5 mph - N/A   Clear
6:15 AM 32.0 °F 27.5 °F 30.2 °F 93% 30.13 in 10.0 mi East 4.6 mph - N/A   Clear
6:35 AM 32.0 °F 27.5 °F 28.4 °F 87% 30.13 in 10.0 mi East 4.6 mph - N/A   Clear
6:55 AM 32.0 °F 26.4 °F 28.4 °F 87% 30.13 in 10.0 mi East 5.8 mph - N/A   Clear
7:15 AM 32.0 °F 27.5 °F 30.2 °F 93% 30.13 in 10.0 mi East 4.6 mph - N/A   Clear
7:35 AM 32.0 °F 27.5 °F 30.2 °F 93% 30.14 in 10.0 mi ESE 4.6 mph - N/A   Clear
7:55 AM 33.8 °F 30.8 °F 30.2 °F 87% 30.14 in 10.0 mi SE 3.5 mph - N/A   Clear
8:15 AM 35.6 °F 29.2 °F 30.2 °F 81% 30.14 in 10.0 mi SE 8.1 mph - N/A   Clear
8:35 AM 35.6 °F 28.6 °F 32.0 °F 87% 30.14 in 10.0 mi SE 9.2 mph - N/A   Clear
8:55 AM 37.4 °F 30.3 °F 30.2 °F 75% 30.14 in 10.0 mi SE 10.4 mph - N/A   Clear
9:15 AM 39.2 °F 32.0 °F 30.2 °F 70% 30.14 in 10.0 mi ESE 11.5 mph 16.1 mph N/A   Clear
9:35 AM 41.0 °F 33.5 °F 30.2 °F 65% 30.14 in 10.0 mi ESE 13.8 mph - N/A   Clear
10:35 AM 41.0 °F 33.5 °F 30.2 °F 65% 30.11 in 10.0 mi SE 13.8 mph 20.7 mph N/A   Scattered Clouds
10:55 AM 42.8 °F 36.2 °F 30.2 °F 61% 30.11 in 10.0 mi SE 12.7 mph - N/A   Clear
11:15 AM 42.8 °F 37.5 °F 30.2 °F 61% 30.12 in 10.0 mi East 9.2 mph - N/A   Scattered Clouds
11:35 AM 44.6 °F 38.8 °F 30.2 °F 57% 30.12 in 10.0 mi East 11.5 mph - N/A   Mostly Cloudy
11:55 AM 44.6 °F 39.7 °F 30.2 °F 57% 30.12 in 10.0 mi SE 9.2 mph - N/A   Mostly Cloudy
12:15 PM 46.4 °F 41.1 °F 30.2 °F 53% 30.10 in 10.0 mi SE 11.5 mph 17.3 mph N/A   Scattered Clouds
12:35 PM 46.4 °F 42.9 °F 30.2 °F 53% 30.09 in 10.0 mi East 6.9 mph 16.1 mph N/A   Clear
12:55 PM 46.4 °F 41.1 °F 30.2 °F 53% 30.08 in 10.0 mi East 11.5 mph 18.4 mph N/A   Scattered Clouds
1:15 PM 50.0 °F - 30.2 °F 47% 30.07 in 10.0 mi East 9.2 mph 18.4 mph N/A   Scattered Clouds
1:35 PM 50.0 °F - 30.2 °F 47% 30.07 in 10.0 mi East 10.4 mph 16.1 mph N/A   Clear
1:55 PM 50.0 °F - 28.4 °F 43% 30.07 in 10.0 mi East 11.5 mph - N/A   Clear
2:15 PM 50.0 °F - 28.4 °F 43% 30.06 in 10.0 mi ESE 9.2 mph - N/A   Clear
2:35 PM 50.0 °F - 28.4 °F 43% 30.05 in 10.0 mi ENE 6.9 mph 16.1 mph N/A   Clear
2:55 PM 50.0 °F - 28.4 °F 43% 30.04 in 10.0 mi East 12.7 mph - N/A   Clear
3:15 PM 50.0 °F - 28.4 °F 43% 30.03 in 10.0 mi ESE 9.2 mph 17.3 mph N/A   Clear
3:35 PM 50.0 °F - 28.4 °F 43% 30.02 in 10.0 mi East 10.4 mph - N/A   Clear
3:55 PM 51.8 °F - 28.4 °F 41% 30.01 in 10.0 mi East 13.8 mph 18.4 mph N/A   Clear
4:15 PM 51.8 °F - 28.4 °F 41% 30.00 in 10.0 mi East 13.8 mph - N/A   Clear
4:35 PM 50.0 °F - 28.4 °F 43% 29.99 in 10.0 mi East 11.5 mph 16.1 mph N/A   Clear
4:55 PM 50.0 °F - 28.4 °F 43% 29.98 in 10.0 mi East 10.4 mph - N/A   Clear
5:15 PM 50.0 °F - 30.2 °F 47% 29.98 in 10.0 mi East 12.7 mph - N/A   Scattered Clouds
5:35 PM 50.0 °F - 30.2 °F 47% 29.96 in 10.0 mi East 12.7 mph 18.4 mph N/A   Scattered Clouds
5:55 PM 50.0 °F - 30.2 °F 47% 29.95 in 10.0 mi East 13.8 mph - N/A   Clear
6:15 PM 50.0 °F - 30.2 °F 47% 29.95 in 10.0 mi ESE 11.5 mph - N/A   Clear
6:35 PM 50.0 °F - 30.2 °F 47% 29.93 in 10.0 mi East 13.8 mph 19.6 mph N/A   Clear
6:55 PM 50.0 °F - 30.2 °F 47% 29.93 in 10.0 mi ESE 11.5 mph 17.3 mph N/A   Clear
7:15 PM 50.0 °F - 30.2 °F 47% 29.94 in 10.0 mi ESE 11.5 mph - N/A   Clear
7:35 PM 48.2 °F - 30.2 °F 50% 29.93 in 10.0 mi ESE 13.8 mph 20.7 mph N/A   Clear
7:55 PM 48.2 °F - 30.2 °F 50% 29.93 in 10.0 mi ESE 10.4 mph - N/A   Clear
8:15 PM 48.2 °F - 32.0 °F 54% 29.94 in 10.0 mi SE 10.4 mph - N/A   Clear
8:35 PM 46.4 °F 41.5 °F 30.2 °F 53% 29.94 in 10.0 mi ESE 10.4 mph 17.3 mph N/A   Clear
8:55 PM 46.4 °F 41.1 °F 32.0 °F 57% 29.91 in 10.0 mi ESE 11.5 mph 17.3 mph N/A   Clear
9:15 PM 46.4 °F 40.4 °F 32.0 °F 57% 29.90 in 10.0 mi ESE 13.8 mph - N/A   Scattered Clouds
9:35 PM 46.4 °F 40.4 °F 32.0 °F 57% 29.90 in 10.0 mi ESE 13.8 mph 20.7 mph N/A   Mostly Cloudy
9:55 PM 44.6 °F 37.2 °F 32.0 °F 61% 29.90 in 10.0 mi ESE 17.3 mph 20.7 mph N/A   Overcast
10:15 PM 44.6 °F 39.2 °F 32.0 °F 61% 29.91 in 10.0 mi ESE 10.4 mph 20.7 mph N/A   Overcast
10:35 PM 44.6 °F 39.2 °F 32.0 °F 61% 29.93 in 10.0 mi ESE 10.4 mph 19.6 mph N/A   Overcast
10:55 PM 44.6 °F 38.1 °F 30.2 °F 57% 29.95 in 10.0 mi SE 13.8 mph 17.3 mph N/A   Overcast
11:15 PM 41.0 °F 34.3 °F 32.0 °F 70% 29.94 in 10.0 mi SE 11.5 mph - 0.01 in Rain Light Rain
11:55 PM 37.4 °F 28.2 °F 35.6 °F 93% 29.88 in 3.0 mi ESE 16.1 mph 21.9 mph 0.08 in Rain Rain